Time;durP1;ratioP1;P1;durP2;ratioP2;P2;SDS_P1;SDS_P2;PMS_P1;PMS_P2;Temp;Humidity;BMP_temperature;BMP_pressure;BME280_temperature;BME280_humidity;BME280_pressure;Samples;Min_cycle;Max_cycle;Signal;HPM_P1;HPM_P2
2021/05/28 00:00:16;;;;;;;6.72;4.50;;;;;;;20.37;58.37;100348.25;1834820;77;22179;-60
2021/05/28 00:02:49;;;;;;;5.92;3.50;;;;;;;20.34;58.39;100342.58;1818397;77;22190;-61
2021/05/28 00:05:23;;;;;;;5.47;3.65;;;;;;;20.33;58.41;100336.00;1833902;77;22172;-60
2021/05/28 00:08:09;;;;;;;6.00;3.58;;;;;;;20.25;58.40;100332.86;1775317;80;21167;-60
2021/05/28 00:11:01;;;;;;;4.47;3.67;;;;;;;20.21;58.50;100332.18;1842195;77;22220;-61
2021/05/28 00:13:35;;;;;;;4.97;3.65;;;;;;;20.17;58.54;100331.95;1825992;77;22169;-60
2021/05/28 00:16:08;;;;;;;6.67;4.05;;;;;;;20.12;58.68;100323.31;1828416;77;22128;-61
2021/05/28 00:18:42;;;;;;;5.15;3.92;;;;;;;20.09;58.76;100326.14;1778254;77;22225;-60
2021/05/28 00:21:15;;;;;;;5.33;4.03;;;;;;;20.06;58.90;100330.70;1834850;77;22179;-59
2021/05/28 00:23:49;;;;;;;4.85;3.77;;;;;;;20.08;58.92;100327.97;1804248;77;22178;-60
2021/05/28 00:26:22;;;;;;;6.65;4.00;;;;;;;20.08;58.93;100325.30;1846486;77;22142;-60
2021/05/28 00:28:55;;;;;;;5.90;3.95;;;;;;;20.08;58.95;100324.42;1821148;77;22189;-60
2021/05/28 00:31:29;;;;;;;5.40;4.08;;;;;;;20.09;58.90;100324.81;1828126;77;22162;-59
2021/05/28 00:34:03;;;;;;;7.20;4.42;;;;;;;20.12;58.82;100323.31;1909190;74;22072;-60
2021/05/28 00:36:36;;;;;;;7.10;4.25;;;;;;;20.06;58.94;100314.67;1832794;77;22562;-60
2021/05/28 00:39:09;;;;;;;8.43;5.37;;;;;;;20.05;58.97;100310.77;1819835;77;22641;-60
2021/05/28 00:41:42;;;;;;;6.03;3.80;;;;;;;20.04;58.92;100314.38;1833491;77;22180;-60
2021/05/28 00:44:23;;;;;;;5.83;3.85;;;;;;;20.03;58.90;100309.98;1853146;77;22179;-59
2021/05/28 00:47:16;;;;;;;8.18;3.75;;;;;;;20.00;58.88;100312.81;1821257;77;22541;-61
2021/05/28 00:49:49;;;;;;;5.50;3.92;;;;;;;19.98;58.92;100313.36;1834955;77;22180;-59
2021/05/28 00:52:22;;;;;;;6.95;4.12;;;;;;;19.97;58.95;100311.64;1804446;77;22648;-60
2021/05/28 00:54:56;;;;;;;4.90;4.08;;;;;;;19.93;59.01;100311.41;1834793;77;22183;-59
2021/05/28 00:57:29;;;;;;;5.65;4.40;;;;;;;19.90;59.07;100309.73;1839984;77;22197;-61
2021/05/28 01:00:05;;;;;;;5.35;4.10;;;;;;;19.90;59.08;100309.28;1833874;77;22713;-60
2021/05/28 01:02:38;;;;;;;4.65;3.62;;;;;;;19.88;59.11;100311.17;1820853;77;20114;-60
2021/05/28 01:05:12;;;;;;;5.15;4.00;;;;;;;19.87;59.12;100306.73;1829566;77;22167;-59
2021/05/28 01:07:46;;;;;;;5.35;3.58;;;;;;;19.86;59.17;100306.84;1819155;77;22609;-61
2021/05/28 01:10:19;;;;;;;7.60;3.77;;;;;;;19.85;59.26;100305.11;1830086;77;22139;-60
2021/05/28 01:12:55;;;;;;;4.55;3.60;;;;;;;19.85;59.27;100305.11;1835622;77;22170;-60
2021/05/28 01:15:29;;;;;;;7.03;4.05;;;;;;;19.88;59.26;100299.16;1832343;77;22120;-60
2021/05/28 01:18:03;;;;;;;6.85;4.03;;;;;;;19.83;59.43;100297.64;1814886;77;22178;-60
2021/05/28 01:20:36;;;;;;;5.40;4.08;;;;;;;19.82;59.40;100298.59;1820014;77;22171;-60
2021/05/28 01:23:10;;;;;;;5.62;3.95;;;;;;;19.81;59.43;100293.70;1830000;77;22178;-60
2021/05/28 01:25:43;;;;;;;6.08;3.70;;;;;;;19.81;59.40;100295.53;1834774;77;22156;-60
2021/05/28 01:28:16;;;;;;;7.12;4.30;;;;;;;19.80;59.37;100293.80;1819701;78;22186;-62
2021/05/28 01:30:49;;;;;;;5.37;4.12;;;;;;;19.80;59.36;100302.66;1834803;77;22179;-60
2021/05/28 01:33:23;;;;;;;5.12;4.20;;;;;;;19.78;59.30;100299.20;1810562;77;22618;-60
2021/05/28 01:35:58;;;;;;;6.25;4.10;;;;;;;19.78;59.27;100293.86;1834893;77;22183;-59
2021/05/28 01:38:31;;;;;;;6.55;4.37;;;;;;;19.75;59.18;100291.35;1801685;77;22202;-60
2021/05/28 01:41:07;;;;;;;5.22;3.60;;;;;;;19.72;59.21;100294.17;1834805;77;22179;-60
2021/05/28 01:43:40;;;;;;;6.83;5.35;;;;;;;19.68;59.35;100294.82;1785753;77;28071;-60
2021/05/28 01:46:13;;;;;;;6.03;4.37;;;;;;;19.66;59.40;100292.70;1834078;77;22136;-61
2021/05/28 01:48:47;;;;;;;5.80;4.12;;;;;;;19.65;59.40;100292.30;1823130;77;22170;-61
2021/05/28 01:51:20;;;;;;;5.90;4.08;;;;;;;19.63;59.38;100292.01;1834845;77;22167;-60
2021/05/28 01:53:54;;;;;;;6.75;3.87;;;;;;;19.64;59.34;100295.07;1811931;77;22202;-61
2021/05/28 01:56:27;;;;;;;7.05;4.05;;;;;;;19.63;59.30;100293.34;1852261;77;22562;-61
2021/05/28 01:59:01;;;;;;;6.45;4.12;;;;;;;19.60;59.23;100291.67;1819960;77;22625;-60
2021/05/28 02:01:34;;;;;;;9.18;4.15;;;;;;;19.56;59.16;100294.11;1832037;77;22163;-59
2021/05/28 02:04:07;;;;;;;5.22;4.12;;;;;;;19.52;59.20;100291.20;1833141;77;22159;-61
2021/05/28 02:06:40;;;;;;;7.05;4.30;;;;;;;19.48;59.22;100287.84;1852165;77;22179;-61
2021/05/28 02:09:14;;;;;;;7.40;4.47;;;;;;;19.41;59.41;100290.42;1834816;77;22622;-60
2021/05/28 02:11:47;;;;;;;4.72;3.98;;;;;;;19.35;59.49;100290.27;1843928;77;22163;-61
2021/05/28 02:14:21;;;;;;;6.22;5.15;;;;;;;19.33;59.49;100285.48;1833219;77;22143;-60
2021/05/28 02:16:54;;;;;;;6.20;4.53;;;;;;;19.33;59.41;100282.81;1830846;77;22183;-60
2021/05/28 02:19:27;;;;;;;5.72;4.00;;;;;;;19.28;59.44;100278.18;1825429;77;22185;-60
2021/05/28 02:22:00;;;;;;;4.78;4.05;;;;;;;19.24;59.46;100277.94;1829422;77;22199;-61
2021/05/28 02:24:34;;;;;;;5.72;4.03;;;;;;;19.21;59.53;100273.60;1853271;77;22183;-60
2021/05/28 02:27:07;;;;;;;5.22;3.72;;;;;;;19.18;59.52;100271.12;1827925;77;22190;-60
2021/05/28 02:29:41;;;;;;;5.05;4.40;;;;;;;19.16;59.58;100262.33;1835340;77;22139;-46
2021/05/28 02:32:14;;;;;;;6.65;4.50;;;;;;;19.10;59.84;100259.47;1816221;77;22199;-60
2021/05/28 02:34:47;;;;;;;6.53;4.25;;;;;;;19.10;59.85;100264.81;1853270;77;22155;-59
2021/05/28 02:37:21;;;;;;;4.58;4.05;;;;;;;19.13;59.76;100259.32;1841608;77;22190;-60
2021/05/28 02:39:54;;;;;;;5.25;4.12;;;;;;;19.07;59.92;100255.62;1834913;77;22184;-59
2021/05/28 02:42:27;;;;;;;5.40;4.45;;;;;;;19.03;60.02;100258.05;1815629;77;22206;-60
2021/05/28 02:45:01;;;;;;;6.22;4.50;;;;;;;19.08;60.01;100251.17;1853155;77;22670;-47
2021/05/28 02:47:34;;;;;;;9.68;4.85;;;;;;;19.13;59.88;100243.31;1821590;77;22642;-47
2021/05/28 02:50:10;;;;;;;6.00;4.30;;;;;;;19.08;60.06;100243.17;1831896;77;22116;-47
2021/05/28 02:52:49;;;;;;;5.90;4.12;;;;;;;19.15;59.98;100245.44;1817689;77;22197;-46
2021/05/28 02:55:22;;;;;;;5.85;4.20;;;;;;;19.17;59.85;100246.23;1834782;77;22587;-47
2021/05/28 02:57:56;;;;;;;6.00;4.10;;;;;;;19.15;59.91;100244.11;1809941;77;22197;-46
2021/05/28 03:00:29;;;;;;;6.25;4.33;;;;;;;19.13;60.00;100245.98;1827537;77;22119;-46
2021/05/28 03:03:03;;;;;;;5.53;4.35;;;;;;;19.14;60.12;100247.72;1833388;77;22169;-46
2021/05/28 03:05:50;;;;;;;9.73;4.62;;;;;;;19.13;60.16;100245.98;1793340;80;21181;-48
2021/05/28 03:08:26;;;;;;;7.35;4.30;;;;;;;19.21;60.17;100246.92;1805635;77;22198;-47
2021/05/28 03:10:58;;;;;;;8.95;4.70;;;;;;;19.23;60.27;100246.38;1834919;77;22179;-47
2021/05/28 03:13:32;;;;;;;6.17;4.35;;;;;;;19.26;60.45;100245.38;1808981;77;22199;-60
2021/05/28 03:16:05;;;;;;;6.85;4.30;;;;;;;19.33;60.47;100254.80;1837912;77;22186;-46
2021/05/28 03:18:52;;;;;;;7.17;4.60;;;;;;;19.41;60.41;100254.39;1806732;77;22174;-47
2021/05/28 03:21:36;;;;;;;5.90;4.83;;;;;;;19.39;60.52;100252.27;1853258;77;22128;-47
2021/05/28 03:24:00;;;;;;;5.92;4.65;;;;;;;19.47;60.50;100242.92;1820502;77;22220;-60
2021/05/28 03:26:46;;;;;;;4.90;3.92;;;;;;;19.38;60.82;100250.55;1790796;79;21118;-61
2021/05/28 03:29:21;;;;;;;5.90;4.22;;;;;;;19.41;61.14;100254.39;1821368;77;22171;-60
2021/05/28 03:31:55;;;;;;;7.33;4.60;;;;;;;19.54;61.18;100262.62;1817010;77;22186;-46
2021/05/28 03:34:48;;;;;;;8.23;4.45;;;;;;;19.69;60.97;100263.17;1825644;77;22215;-49
2021/05/28 03:37:21;;;;;;;5.95;4.28;;;;;;;19.73;61.04;100264.74;1810264;77;22178;-47
2021/05/28 03:39:55;;;;;;;7.15;5.10;;;;;;;19.65;61.61;100263.43;1820771;77;22207;-46
2021/05/28 03:42:28;;;;;;;6.42;4.67;;;;;;;19.69;61.70;100267.18;1808485;77;22178;-47
2021/05/28 03:45:04;;;;;;;5.78;4.35;;;;;;;19.70;61.81;100262.23;1817870;77;22119;-47
2021/05/28 03:47:37;;;;;;;6.37;5.78;;;;;;;19.73;61.98;100262.08;1784566;77;28163;-47
2021/05/28 03:50:12;;;;;;;6.70;4.90;;;;;;;19.89;61.89;100265.28;1821899;77;22185;-47
2021/05/28 03:52:51;;;;;;;5.75;4.90;;;;;;;20.00;61.89;100261.57;1816959;77;22213;-47
2021/05/28 03:55:25;;;;;;;7.10;4.78;;;;;;;20.03;62.06;100261.90;1834063;77;22567;-47
2021/05/28 03:57:58;;;;;;;5.92;4.83;;;;;;;20.16;61.90;100258.08;1834427;77;22170;-47
2021/05/28 04:00:44;;;;;;;6.00;4.72;;;;;;;20.16;61.99;100265.61;1788961;79;21146;-48
2021/05/28 04:03:17;;;;;;;5.12;4.62;;;;;;;20.24;62.02;100261.20;1812707;77;22206;-47
2021/05/28 04:05:50;;;;;;;7.97;5.10;;;;;;;20.42;61.88;100256.66;1828498;77;22167;-47
2021/05/28 04:08:23;;;;;;;6.25;4.80;;;;;;;20.44;62.02;100257.43;1810709;77;22194;-47
2021/05/28 04:10:57;;;;;;;7.08;4.30;;;;;;;20.54;62.06;100258.23;1829268;77;22134;-47
2021/05/28 04:13:31;;;;;;;5.97;4.90;;;;;;;20.64;61.89;100257.65;1803330;77;22183;-48
2021/05/28 04:16:05;;;;;;;6.40;5.10;;;;;;;20.75;61.87;100258.86;1828852;77;22186;-47
2021/05/28 04:18:38;;;;;;;6.28;5.08;;;;;;;20.86;61.76;100258.27;1795434;77;22181;-47
2021/05/28 04:21:11;;;;;;;6.33;4.90;;;;;;;20.98;61.67;100261.55;1851367;77;22183;-47
2021/05/28 04:24:01;;;;;;;9.75;4.62;;;;;;;21.06;61.51;100261.13;1773997;80;21174;-47
2021/05/28 04:26:35;;;;;;;6.12;4.10;;;;;;;21.24;61.63;100257.35;1834710;77;22630;-46
2021/05/28 04:29:08;;;;;;;5.80;4.17;;;;;;;21.43;60.98;100254.93;1810405;77;22139;-46
2021/05/28 04:31:41;;;;;;;8.08;5.47;;;;;;;21.70;60.78;100255.58;1826780;77;22169;-47
2021/05/28 04:34:15;;;;;;;8.28;5.30;;;;;;;21.91;60.16;100252.55;1853008;77;22178;-47
2021/05/28 04:36:48;;;;;;;5.62;4.85;;;;;;;22.05;59.99;100248.54;1829736;77;22547;-48
2021/05/28 04:39:21;;;;;;;6.47;4.25;;;;;;;22.21;59.77;100255.59;1853188;77;22614;-48
2021/05/28 04:41:55;;;;;;;5.83;4.50;;;;;;;22.31;59.71;100251.84;1826489;77;22127;-48
2021/05/28 04:44:42;;;;;;;5.17;4.50;;;;;;;22.44;59.70;100254.16;1764862;81;21138;-48
2021/05/28 04:47:16;;;;;;;9.65;4.17;;;;;;;22.70;58.96;100245.77;1810528;77;22194;-47
2021/05/28 04:49:49;;;;;;;4.47;4.08;;;;;;;22.84;58.40;100242.67;1852181;77;22167;-47
2021/05/28 04:52:36;;;;;;;5.12;4.62;;;;;;;22.91;57.90;100252.03;1812369;78;21177;-48
2021/05/28 04:55:11;;;;;;;5.20;3.95;;;;;;;23.09;57.94;100245.05;1843947;77;22123;-47
2021/05/28 04:57:44;;;;;;;6.55;3.87;;;;;;;23.26;57.42;100247.96;1837529;77;22637;-47
2021/05/28 05:00:19;;;;;;;7.35;5.03;;;;;;;23.44;56.73;100241.81;1833258;77;22143;-48
2021/05/28 05:03:05;;;;;;;6.35;4.30;;;;;;;23.54;56.74;100245.59;1728349;82;21319;-48
2021/05/28 05:05:38;;;;;;;5.97;4.65;;;;;;;23.82;56.49;100243.69;1825135;77;22141;-48
2021/05/28 05:08:11;;;;;;;8.60;4.65;;;;;;;24.06;55.79;100237.56;1813333;77;22191;-47
2021/05/28 05:10:51;;;;;;;5.35;3.80;;;;;;;24.30;54.95;100240.31;1853120;77;22712;-47
2021/05/28 05:13:24;;;;;;;6.95;4.20;;;;;;;24.37;54.37;100254.66;1809837;77;22166;-48
2021/05/28 05:15:57;;;;;;;5.83;4.12;;;;;;;24.44;54.30;100243.84;1834736;77;22603;-48
2021/05/28 05:18:31;;;;;;;6.87;4.53;;;;;;;24.64;54.33;100239.18;1826795;77;22169;-47
2021/05/28 05:21:05;;;;;;;6.33;4.55;;;;;;;24.91;53.52;100232.77;1852263;77;22163;-47
2021/05/28 05:23:40;;;;;;;6.40;3.83;;;;;;;25.21;53.37;100234.56;1782748;77;22200;-48
2021/05/28 05:26:13;;;;;;;4.83;3.77;;;;;;;25.43;52.56;100235.62;1834775;77;22183;-48
2021/05/28 05:28:46;;;;;;;5.35;3.87;;;;;;;25.46;52.14;100233.56;1810148;77;22183;-48
2021/05/28 05:31:19;;;;;;;7.25;3.95;;;;;;;25.59;51.76;100230.80;1827205;77;22139;-47
2021/05/28 05:33:53;;;;;;;5.00;4.00;;;;;;;25.70;51.56;100224.56;1821797;77;22182;-48
2021/05/28 05:36:26;;;;;;;7.05;3.65;;;;;;;26.06;51.13;100228.00;1833014;77;22154;-48
2021/05/28 05:39:13;;;;;;;6.45;3.60;;;;;;;26.25;50.24;100227.91;1695274;84;21147;-49
2021/05/28 05:41:46;;;;;;;4.03;3.35;;;;;;;26.48;49.59;100226.03;1809052;77;22135;-48
2021/05/28 05:44:19;;;;;;;7.42;3.52;;;;;;;26.71;48.91;100224.10;1843123;77;22135;-48
2021/05/28 05:46:53;;;;;;;5.05;3.47;;;;;;;26.91;48.77;100222.13;1849427;77;22154;-49
2021/05/28 05:49:26;;;;;;;5.50;3.67;;;;;;;27.24;48.32;100217.55;1828130;77;22154;-48
2021/05/28 05:51:59;;;;;;;5.85;3.55;;;;;;;27.55;48.37;100212.23;1829658;77;22166;-48
2021/05/28 05:54:34;;;;;;;5.90;3.65;;;;;;;27.84;47.48;100213.73;1832264;77;22119;-48
2021/05/28 05:57:08;;;;;;;4.95;3.47;;;;;;;28.07;47.32;100209.47;1824790;77;22215;-48
2021/05/28 05:59:42;;;;;;;5.47;3.58;;;;;;;28.42;47.08;100207.33;1811781;77;22535;-49
2021/05/28 06:02:15;;;;;;;6.95;3.10;;;;;;;28.85;45.04;100197.16;1826081;77;22174;-48
2021/05/28 06:04:48;;;;;;;5.45;3.47;;;;;;;28.77;43.41;100192.44;1821021;77;22210;-48
2021/05/28 06:07:34;;;;;;;11.80;4.00;;;;;;;28.75;44.12;100195.30;1782624;80;21138;-48
2021/05/28 06:10:09;;;;;;;6.35;3.70;;;;;;;29.11;44.56;100192.50;1834792;77;22175;-48
2021/05/28 06:12:42;;;;;;;5.12;3.40;;;;;;;29.34;43.76;100190.33;1820017;77;22179;-48
2021/05/28 06:15:22;;;;;;;4.42;3.22;;;;;;;29.73;43.77;100186.69;1853112;77;22589;-48
2021/05/28 06:17:55;;;;;;;5.58;3.50;;;;;;;30.13;43.18;100185.53;1828602;77;22648;-48
2021/05/28 06:20:29;;;;;;;5.58;3.12;;;;;;;30.39;42.35;100182.95;1834785;77;22180;-48
2021/05/28 06:23:02;;;;;;;4.08;3.08;;;;;;;30.64;42.41;100183.73;1802349;77;22179;-49
2021/05/28 06:25:36;;;;;;;3.50;2.95;;;;;;;30.93;41.20;100181.27;1847099;77;22136;-49
2021/05/28 06:28:10;;;;;;;4.70;2.98;;;;;;;31.00;40.64;100176.92;1813771;77;22190;-49
2021/05/28 06:30:43;;;;;;;5.20;3.10;;;;;;;31.07;41.09;100171.21;1834754;77;22180;-50
2021/05/28 06:33:16;;;;;;;8.33;2.95;;;;;;;31.37;40.95;100169.55;1807297;77;22183;-50
2021/05/28 06:35:49;;;;;;;5.25;2.62;;;;;;;31.72;40.48;100174.53;1813811;77;22143;-50
2021/05/28 06:38:23;;;;;;;4.72;2.90;;;;;;;32.08;39.67;100162.63;1828671;77;22185;-50
2021/05/28 06:40:56;;;;;;;6.33;2.95;;;;;;;32.20;39.37;100164.03;1832461;77;22115;-50
2021/05/28 06:43:29;;;;;;;4.03;2.95;;;;;;;32.51;38.68;100153.91;1808620;77;22650;-50
2021/05/28 06:46:03;;;;;;;5.90;2.50;;;;;;;32.81;38.42;100155.66;1834807;77;22179;-49
2021/05/28 06:48:36;;;;;;;7.67;2.90;;;;;;;33.29;37.71;100157.16;1807877;77;22175;-49
2021/05/28 06:51:10;;;;;;;3.52;2.65;;;;;;;33.32;37.66;100150.00;1852063;77;22165;-49
2021/05/28 06:53:43;;;;;;;4.60;2.80;;;;;;;33.72;36.35;100150.09;1789208;77;22230;-50
2021/05/28 06:56:16;;;;;;;5.42;2.80;;;;;;;33.74;36.38;100152.14;1853136;77;22626;-49
2021/05/28 06:58:50;;;;;;;6.90;2.80;;;;;;;33.70;36.14;100152.64;1822429;77;22181;-49
2021/05/28 07:01:24;;;;;;;7.85;2.72;;;;;;;33.61;35.76;100148.58;1823304;77;22678;-48
2021/05/28 07:04:17;;;;;;;4.50;2.62;;;;;;;33.66;34.66;100145.34;1926196;74;22247;-51
2021/05/28 07:06:50;;;;;;;5.67;2.72;;;;;;;33.51;35.19;100146.59;1849969;77;22203;-49
2021/05/28 07:09:24;;;;;;;3.58;2.42;;;;;;;33.49;35.28;100144.02;1834661;77;22659;-50
2021/05/28 07:11:57;;;;;;;3.17;2.50;;;;;;;33.66;35.07;100147.54;1812719;77;22676;-49
2021/05/28 07:14:30;;;;;;;3.67;2.47;;;;;;;33.85;35.45;100139.97;1853125;77;22179;-48
2021/05/28 07:17:03;;;;;;;3.52;2.50;;;;;;;34.27;34.41;100141.15;1828730;77;22174;-48
2021/05/28 07:19:37;;;;;;;3.47;2.33;;;;;;;34.44;33.29;100134.59;1834343;77;22174;-49
2021/05/28 07:22:23;;;;;;;2.45;2.02;;;;;;;34.64;33.99;100136.81;1793086;80;21507;-50
2021/05/28 07:24:56;;;;;;;3.52;2.02;;;;;;;35.20;33.77;100131.56;1834805;77;22184;-48
2021/05/28 07:27:29;;;;;;;3.40;1.72;;;;;;;35.68;33.07;100135.31;1823030;77;22190;-50
2021/05/28 07:30:05;;;;;;;3.90;2.42;;;;;;;36.25;31.80;100134.24;1815182;77;22135;-50
2021/05/28 07:32:38;;;;;;;5.35;2.25;;;;;;;36.65;30.73;100122.88;1823404;77;28512;-49
2021/05/28 07:35:12;;;;;;;3.15;1.67;;;;;;;37.61;29.00;100121.46;1834846;77;22179;-49
2021/05/28 07:37:45;;;;;;;2.60;1.82;;;;;;;37.20;29.18;100124.48;1818637;77;22167;-50
2021/05/28 07:40:21;;;;;;;6.50;1.95;;;;;;;37.31;29.17;100125.81;1853148;77;22178;-51
2021/05/28 07:42:55;;;;;;;5.78;2.47;;;;;;;37.28;29.04;100125.70;1801760;77;28483;-50
2021/05/28 07:45:28;;;;;;;8.63;1.90;;;;;;;37.07;29.11;100124.38;1822168;77;22139;-58
2021/05/28 07:48:15;;;;;;;4.80;2.77;;;;;;;36.95;29.05;100118.04;1759227;80;21122;-59
2021/05/28 07:50:49;;;;;;;3.40;2.15;;;;;;;36.84;29.84;100117.23;1845704;77;22190;-59
2021/05/28 07:53:24;;;;;;;3.27;1.95;;;;;;;36.71;29.79;100115.20;1793370;77;22195;-51
2021/05/28 07:56:05;;;;;;;6.05;2.05;;;;;;;36.63;29.52;100108.52;1818211;77;28036;-50
2021/05/28 07:58:34;;;;;;;2.42;1.75;;;;;;;36.54;29.53;100112.77;1807400;77;22643;-50
2021/05/28 08:01:08;;;;;;;4.55;2.10;;;;;;;36.46;29.40;100109.58;1853183;77;22235;-50
2021/05/28 08:03:42;;;;;;;4.70;2.10;;;;;;;36.36;29.70;100113.70;1806740;77;22170;-50
2021/05/28 08:06:15;;;;;;;6.70;2.10;;;;;;;36.27;29.76;100110.25;1834699;77;22180;-51
2021/05/28 08:08:49;;;;;;;3.75;1.95;;;;;;;36.32;30.00;100106.41;1758787;77;22668;-50
2021/05/28 08:11:24;;;;;;;5.53;2.10;;;;;;;36.44;29.93;100103.98;1853144;77;22188;-50
2021/05/28 08:13:58;;;;;;;3.83;1.60;;;;;;;36.64;29.91;100104.20;1820584;77;22564;-50
2021/05/28 08:16:33;;;;;;;3.12;1.80;;;;;;;36.80;29.05;100098.11;1839913;77;22119;-50
2021/05/28 08:19:08;;;;;;;3.42;1.92;;;;;;;36.88;29.67;100100.17;1833027;77;22167;-50
2021/05/28 08:31:30;;;;;;;2.83;2.00;;;;;;;37.94;29.18;100083.19;1834755;77;25263;-50
2021/05/28 08:34:03;;;;;;;2.45;1.70;;;;;;;38.31;28.55;100077.87;1924550;74;22162;-51
2021/05/28 08:36:37;;;;;;;7.47;2.20;;;;;;;38.61;28.04;100076.14;1852991;77;22179;-51
2021/05/28 08:39:10;;;;;;;3.25;1.90;;;;;;;38.96;27.60;100077.30;1834759;77;22618;-51
2021/05/28 08:41:44;;;;;;;4.28;1.80;;;;;;;39.19;26.21;100073.22;1851419;77;22179;-51
2021/05/28 08:44:23;;;;;;;3.25;1.87;;;;;;;39.29;26.47;100074.16;1833484;77;22155;-51
2021/05/28 08:46:53;;;;;;;5.25;1.62;;;;;;;39.53;25.16;100073.46;1831276;77;22184;-51
2021/05/28 08:49:28;;;;;;;4.20;1.92;;;;;;;39.63;26.13;100076.29;1853281;77;22178;-51
2021/05/28 08:52:01;;;;;;;2.60;1.98;;;;;;;39.70;24.38;100076.56;1829222;77;22190;-51
2021/05/28 08:54:35;;;;;;;5.50;2.05;;;;;;;39.59;25.53;100071.73;1817778;77;22535;-51
2021/05/28 08:57:28;;;;;;;3.62;1.62;;;;;;;39.75;23.81;100073.13;1818735;77;22250;-52
2021/05/28 09:00:25;;;;;;;5.42;2.27;;;;;;;39.58;24.38;100074.17;1826069;77;22637;-51
2021/05/28 09:02:57;;;;;;;6.42;2.42;;;;;;;39.52;24.97;100073.15;1818432;77;28079;-50
2021/05/28 09:05:31;;;;;;;3.60;1.70;;;;;;;39.81;25.21;100069.53;1819068;77;22632;-51
2021/05/28 09:08:32;;;;;;;5.50;1.95;;;;;;;40.10;25.00;100067.27;1787649;80;21349;-52
2021/05/28 09:11:13;;;;;;;3.33;1.90;;;;;;;40.30;23.25;100064.91;1851363;77;22132;-51
2021/05/28 09:13:54;;;;;;;8.00;1.90;;;;;;;40.32;23.20;100072.43;1804778;77;22174;-51
2021/05/28 09:16:27;;;;;;;5.40;1.80;;;;;;;40.53;23.55;100066.23;1853081;77;22577;-52
2021/05/28 09:19:24;;;;;;;3.25;1.75;;;;;;;40.79;23.05;100062.42;1909888;74;22172;-52
2021/05/28 09:22:16;;;;;;;3.08;1.87;;;;;;;41.14;23.46;100055.50;1822206;77;22702;-52
2021/05/28 09:24:49;;;;;;;3.15;1.70;;;;;;;41.39;21.96;100055.42;1824342;77;22168;-51
2021/05/28 09:27:33;;;;;;;3.67;1.50;;;;;;;41.28;22.31;100054.83;1824229;77;22719;-51
2021/05/28 09:30:19;;;;;;;3.33;1.55;;;;;;;41.56;23.01;100043.23;1834741;77;22143;-51
2021/05/28 09:32:53;;;;;;;3.83;1.90;;;;;;;41.81;22.59;100047.80;1810034;77;22174;-51
2021/05/28 09:35:26;;;;;;;3.35;1.62;;;;;;;42.05;22.37;100040.45;1834607;77;22669;-51
2021/05/28 09:38:00;;;;;;;7.90;1.82;;;;;;;42.24;20.81;100036.20;1834017;77;22730;-51
2021/05/28 09:40:33;;;;;;;5.87;2.00;;;;;;;42.36;21.54;100039.84;1834730;77;22179;-51
2021/05/28 09:43:11;;;;;;;1.80;1.60;;;;;;;42.67;21.67;100039.77;1802218;77;22688;-51
2021/05/28 09:45:41;;;;;;;4.90;1.95;;;;;;;42.94;21.04;100044.30;1852284;77;22190;-52
2021/05/28 09:48:21;;;;;;;5.75;1.75;;;;;;;42.89;19.22;100041.95;1812617;77;22644;-51
2021/05/28 09:51:01;;;;;;;3.25;1.67;;;;;;;42.58;19.47;100039.83;1828826;77;22156;-51
2021/05/28 09:53:41;;;;;;;3.35;1.90;;;;;;;42.19;20.16;100037.45;1797822;77;22137;-58
2021/05/28 09:56:31;;;;;;;3.10;1.70;;;;;;;42.00;20.39;100043.60;1760353;81;21162;-59
2021/05/28 09:59:07;;;;;;;5.90;1.80;;;;;;;42.15;22.00;100032.95;1853131;77;22068;-59
2021/05/28 10:02:02;;;;;;;2.95;2.08;;;;;;;42.36;21.66;100034.31;1810775;77;27967;-58
2021/05/28 10:04:56;;;;;;;3.50;1.82;;;;;;;42.67;20.82;100027.85;1834606;77;22061;-58
2021/05/28 10:07:46;;;;;;;3.25;1.77;;;;;;;42.72;20.36;100026.06;1819532;77;22130;-58
2021/05/28 10:10:19;;;;;;;2.90;1.72;;;;;;;42.84;21.07;100021.93;1852302;77;22597;-58
2021/05/28 10:12:52;;;;;;;2.10;1.60;;;;;;;43.16;20.97;100017.91;1817738;77;22134;-59
2021/05/28 10:15:26;;;;;;;2.25;1.98;;;;;;;43.47;20.71;100018.56;1847449;77;22299;-58
2021/05/28 10:18:00;;;;;;;2.95;1.60;;;;;;;43.79;20.32;100017.55;1803091;77;22514;-58
2021/05/28 10:20:33;;;;;;;3.40;1.80;;;;;;;43.97;19.92;100012.33;1828878;77;22122;-59
2021/05/28 10:23:20;;;;;;;3.02;1.90;;;;;;;43.58;20.22;100015.44;1777022;80;21564;-60
2021/05/28 10:25:57;;;;;;;2.95;1.67;;;;;;;43.39;19.56;100006.78;1834638;77;22125;-58
2021/05/28 10:28:36;;;;;;;4.33;1.90;;;;;;;42.76;20.96;100010.67;1826668;77;22151;-60
2021/05/28 10:31:10;;;;;;;2.50;1.80;;;;;;;42.78;21.36;100006.27;1831908;77;22230;-59
2021/05/28 10:33:56;;;;;;;2.60;1.65;;;;;;;42.96;21.30;100007.24;1766216;80;21122;-59
2021/05/28 10:36:45;;;;;;;4.08;2.20;;;;;;;43.93;20.58;100000.61;1853110;77;22270;-59
2021/05/28 10:39:19;;;;;;;3.12;1.65;;;;;;;44.31;19.14;99992.65;1813968;77;22071;-59
2021/05/28 10:42:11;;;;;;;3.58;1.90;;;;;;;44.18;19.81;99993.84;1793219;80;21135;-60
2021/05/28 10:44:45;;;;;;;3.27;1.77;;;;;;;44.36;20.11;99990.81;1834810;77;22081;-59
2021/05/28 10:47:19;;;;;;;4.87;1.57;;;;;;;44.59;18.47;99991.72;1832561;77;22126;-59
2021/05/28 10:49:53;;;;;;;3.95;1.67;;;;;;;44.37;19.65;99984.17;1834830;77;22125;-58
2021/05/28 10:52:39;;;;;;;3.58;1.60;;;;;;;44.39;20.01;99979.19;1841547;77;22569;-59
2021/05/28 10:55:20;;;;;;;5.65;2.12;;;;;;;44.49;19.26;99977.16;1851577;77;22282;-60
2021/05/28 10:58:03;;;;;;;3.22;2.08;;;;;;;44.42;18.84;99967.59;1790455;77;22301;-59
2021/05/28 11:00:46;;;;;;;2.02;1.57;;;;;;;44.35;20.25;99977.19;1800671;77;22193;-53
2021/05/28 11:03:25;;;;;;;5.62;1.87;;;;;;;44.17;19.57;99974.96;1778857;77;22137;-52
2021/05/28 11:06:02;;;;;;;3.25;1.60;;;;;;;44.17;20.29;99974.14;1813363;77;22095;-52
2021/05/28 11:08:43;;;;;;;3.83;1.80;;;;;;;44.48;20.05;99966.31;1812121;77;22129;-52
2021/05/28 11:11:42;;;;;;;2.98;1.67;;;;;;;44.91;19.97;99962.49;1821508;77;22052;-52
2021/05/28 11:14:22;;;;;;;4.43;2.03;;;;;;;45.34;19.13;99956.64;1818047;77;27942;-51
2021/05/28 11:17:13;;;;;;;2.27;1.80;;;;;;;45.57;18.74;99956.88;1768012;80;21846;-52
2021/05/28 11:19:49;;;;;;;5.65;2.12;;;;;;;45.50;18.58;99948.45;1834714;77;22559;-52
2021/05/28 11:22:40;;;;;;;8.38;2.27;;;;;;;45.56;18.71;99959.37;1824313;77;22123;-51
2021/05/28 11:25:32;;;;;;;28.70;3.62;;;;;;;45.57;18.41;99956.88;1832389;77;22633;-52
2021/05/28 11:28:09;;;;;;;26.45;4.92;;;;;;;45.40;18.82;99950.58;1808447;77;22219;-52
2021/05/28 11:30:52;;;;;;;7.75;2.35;;;;;;;45.29;18.93;99951.85;1853060;77;22554;-51
2021/05/28 11:33:45;;;;;;;5.22;2.12;;;;;;;45.01;18.44;99952.91;1756199;81;21158;-51
2021/05/28 11:36:30;;;;;;;6.70;2.12;;;;;;;45.33;17.81;99940.22;1821661;77;22100;-60
2021/05/28 11:39:07;;;;;;;6.00;2.17;;;;;;;45.00;18.19;99945.12;1819276;77;28097;-59
2021/05/28 11:41:57;;;;;;;4.15;1.80;;;;;;;44.75;18.38;99937.28;1852109;77;22120;-60
2021/05/28 11:44:34;;;;;;;7.37;3.10;;;;;;;44.89;18.89;99936.37;1833977;77;22085;-59
2021/05/28 11:47:09;;;;;;;4.15;1.95;;;;;;;44.94;19.01;99937.00;1827291;77;22612;-59
2021/05/28 11:49:43;;;;;;;4.20;2.35;;;;;;;45.36;18.55;99935.00;1834614;77;22097;-60
2021/05/28 11:52:17;;;;;;;4.40;2.00;;;;;;;45.68;18.18;99930.05;1825613;77;22158;-59
2021/05/28 11:55:06;;;;;;;5.30;2.12;;;;;;;45.98;17.09;99925.84;1833798;77;22480;-59
2021/05/28 11:58:00;;;;;;;8.50;2.77;;;;;;;45.69;17.49;99930.91;1781212;80;21163;-60
2021/05/28 12:00:37;;;;;;;5.97;2.45;;;;;;;45.77;17.79;99920.67;1834675;77;22262;-59
2021/05/28 12:03:11;;;;;;;4.00;2.10;;;;;;;45.83;17.69;99916.00;1807991;77;22284;-60
2021/05/28 12:05:46;;;;;;;3.80;2.10;;;;;;;45.80;16.48;99917.92;1834654;77;22144;-58
2021/05/28 12:08:29;;;;;;;3.47;1.87;;;;;;;45.43;17.13;99916.72;1805503;77;22580;-61
2021/05/28 12:11:08;;;;;;;3.35;1.90;;;;;;;44.99;18.09;99914.86;1835962;77;22103;-59
2021/05/28 12:13:56;;;;;;;8.43;2.75;;;;;;;44.92;18.48;99912.83;1756052;81;21886;-60
2021/05/28 12:16:29;;;;;;;4.17;1.85;;;;;;;44.67;18.39;99907.20;1852366;77;22305;-59
2021/05/28 12:19:03;;;;;;;2.37;1.60;;;;;;;43.94;19.42;99910.27;1930064;74;22098;-59